sensor_id;sensor_type;location;lat;lon;timestamp;P1;durP1;ratioP1;P2;durP2;ratioP2
21438;SDS011;10880;50.302;18.736;2024-03-23T00:53:20;14.30;;;7.90;;
21438;SDS011;10880;50.302;18.736;2024-03-23T00:55:47;11.40;;;6.63;;
21438;SDS011;10880;50.302;18.736;2024-03-23T00:58:13;12.30;;;6.93;;
21438;SDS011;10880;50.302;18.736;2024-03-23T01:00:40;10.00;;;6.30;;
21438;SDS011;10880;50.302;18.736;2024-03-23T01:03:06;11.70;;;6.90;;
21438;SDS011;10880;50.302;18.736;2024-03-23T01:05:34;10.37;;;6.53;;
21438;SDS011;10880;50.302;18.736;2024-03-23T01:08:00;10.87;;;6.93;;
21438;SDS011;10880;50.302;18.736;2024-03-23T01:10:27;10.80;;;6.83;;
21438;SDS011;10880;50.302;18.736;2024-03-23T01:12:54;12.50;;;7.30;;
21438;SDS011;10880;50.302;18.736;2024-03-23T01:15:20;13.40;;;8.07;;
21438;SDS011;10880;50.302;18.736;2024-03-23T01:17:47;12.50;;;7.80;;
21438;SDS011;10880;50.302;18.736;2024-03-23T01:20:13;9.97;;;6.57;;
21438;SDS011;10880;50.302;18.736;2024-03-23T01:22:40;10.17;;;6.80;;
21438;SDS011;10880;50.302;18.736;2024-03-23T01:25:07;9.97;;;6.27;;
21438;SDS011;10880;50.302;18.736;2024-03-23T01:27:33;9.73;;;6.50;;
21438;SDS011;10880;50.302;18.736;2024-03-23T01:30:00;8.90;;;6.03;;
21438;SDS011;10880;50.302;18.736;2024-03-23T01:32:26;13.23;;;7.50;;
21438;SDS011;10880;50.302;18.736;2024-03-23T01:34:53;17.30;;;9.20;;
21438;SDS011;10880;50.302;18.736;2024-03-23T01:37:19;14.83;;;8.57;;
21438;SDS011;10880;50.302;18.736;2024-03-23T01:39:46;14.50;;;8.50;;
21438;SDS011;10880;50.302;18.736;2024-03-23T01:42:13;15.80;;;9.33;;
21438;SDS011;10880;50.302;18.736;2024-03-23T01:44:40;16.50;;;8.97;;
21438;SDS011;10880;50.302;18.736;2024-03-23T01:47:06;13.50;;;8.10;;
21438;SDS011;10880;50.302;18.736;2024-03-23T01:49:33;14.50;;;8.50;;
21438;SDS011;10880;50.302;18.736;2024-03-23T01:51:59;15.30;;;7.80;;
21438;SDS011;10880;50.302;18.736;2024-03-23T01:54:26;15.27;;;8.30;;
21438;SDS011;10880;50.302;18.736;2024-03-23T01:56:54;16.53;;;8.57;;
21438;SDS011;10880;50.302;18.736;2024-03-23T01:59:21;17.87;;;10.43;;
21438;SDS011;10880;50.302;18.736;2024-03-23T02:01:47;13.70;;;8.07;;
21438;SDS011;10880;50.302;18.736;2024-03-23T02:04:14;14.53;;;7.63;;
21438;SDS011;10880;50.302;18.736;2024-03-23T02:06:41;13.80;;;7.93;;
21438;SDS011;10880;50.302;18.736;2024-03-23T02:09:11;12.63;;;7.50;;
21438;SDS011;10880;50.302;18.736;2024-03-23T02:11:37;20.43;;;9.97;;
21438;SDS011;10880;50.302;18.736;2024-03-23T02:14:04;21.23;;;10.20;;
21438;SDS011;10880;50.302;18.736;2024-03-23T02:16:30;17.30;;;9.07;;
21438;SDS011;10880;50.302;18.736;2024-03-23T02:18:57;15.90;;;8.87;;
21438;SDS011;10880;50.302;18.736;2024-03-23T02:21:23;14.83;;;8.13;;
21438;SDS011;10880;50.302;18.736;2024-03-23T02:23:50;16.27;;;8.90;;
21438;SDS011;10880;50.302;18.736;2024-03-23T02:26:16;15.37;;;7.83;;
21438;SDS011;10880;50.302;18.736;2024-03-23T02:28:43;16.07;;;8.40;;
21438;SDS011;10880;50.302;18.736;2024-03-23T02:31:10;17.17;;;9.00;;
21438;SDS011;10880;50.302;18.736;2024-03-23T02:33:39;22.87;;;10.93;;
21438;SDS011;10880;50.302;18.736;2024-03-23T02:36:05;23.97;;;12.20;;
21438;SDS011;10880;50.302;18.736;2024-03-23T02:38:32;20.83;;;11.93;;
21438;SDS011;10880;50.302;18.736;2024-03-23T02:41:05;22.93;;;10.87;;
21438;SDS011;10880;50.302;18.736;2024-03-23T02:43:31;18.60;;;8.97;;
21438;SDS011;10880;50.302;18.736;2024-03-23T02:45:58;15.30;;;8.00;;
21438;SDS011;10880;50.302;18.736;2024-03-23T02:48:24;14.20;;;7.80;;
21438;SDS011;10880;50.302;18.736;2024-03-23T02:50:51;12.73;;;7.23;;
21438;SDS011;10880;50.302;18.736;2024-03-23T02:53:17;9.73;;;6.10;;
21438;SDS011;10880;50.302;18.736;2024-03-23T02:55:44;11.33;;;6.60;;
21438;SDS011;10880;50.302;18.736;2024-03-23T02:58:11;14.07;;;7.87;;
21438;SDS011;10880;50.302;18.736;2024-03-23T03:00:37;12.80;;;7.47;;
21438;SDS011;10880;50.302;18.736;2024-03-23T03:03:04;12.60;;;7.07;;
21438;SDS011;10880;50.302;18.736;2024-03-23T03:05:30;14.33;;;8.13;;
21438;SDS011;10880;50.302;18.736;2024-03-23T03:07:58;13.77;;;7.10;;
21438;SDS011;10880;50.302;18.736;2024-03-23T03:10:24;12.17;;;6.80;;
21438;SDS011;10880;50.302;18.736;2024-03-23T03:12:51;18.43;;;9.47;;
21438;SDS011;10880;50.302;18.736;2024-03-23T03:15:17;24.40;;;13.00;;
21438;SDS011;10880;50.302;18.736;2024-03-23T03:17:46;23.17;;;12.43;;
21438;SDS011;10880;50.302;18.736;2024-03-23T03:20:16;23.10;;;10.63;;
21438;SDS011;10880;50.302;18.736;2024-03-23T03:22:43;20.77;;;10.43;;
21438;SDS011;10880;50.302;18.736;2024-03-23T03:25:10;16.43;;;9.53;;
21438;SDS011;10880;50.302;18.736;2024-03-23T03:27:37;14.37;;;7.93;;
21438;SDS011;10880;50.302;18.736;2024-03-23T03:30:03;16.13;;;8.77;;
21438;SDS011;10880;50.302;18.736;2024-03-23T03:32:34;14.73;;;7.80;;
21438;SDS011;10880;50.302;18.736;2024-03-23T03:35:01;13.73;;;8.03;;
21438;SDS011;10880;50.302;18.736;2024-03-23T03:37:28;16.90;;;8.40;;
21438;SDS011;10880;50.302;18.736;2024-03-23T03:39:54;14.07;;;7.67;;
21438;SDS011;10880;50.302;18.736;2024-03-23T03:42:21;12.93;;;7.83;;
21438;SDS011;10880;50.302;18.736;2024-03-23T03:44:47;14.97;;;7.70;;
21438;SDS011;10880;50.302;18.736;2024-03-23T03:47:14;17.53;;;9.40;;
21438;SDS011;10880;50.302;18.736;2024-03-23T03:49:40;17.63;;;10.00;;
21438;SDS011;10880;50.302;18.736;2024-03-23T03:52:10;14.90;;;8.60;;
21438;SDS011;10880;50.302;18.736;2024-03-23T03:54:36;25.17;;;13.03;;
21438;SDS011;10880;50.302;18.736;2024-03-23T03:57:03;23.33;;;11.60;;
21438;SDS011;10880;50.302;18.736;2024-03-23T03:59:29;26.97;;;13.70;;
21438;SDS011;10880;50.302;18.736;2024-03-23T04:01:56;26.37;;;14.07;;
21438;SDS011;10880;50.302;18.736;2024-03-23T04:04:23;25.03;;;12.73;;
21438;SDS011;10880;50.302;18.736;2024-03-23T04:06:49;22.53;;;11.87;;
21438;SDS011;10880;50.302;18.736;2024-03-23T04:09:24;22.23;;;11.90;;
21438;SDS011;10880;50.302;18.736;2024-03-23T04:11:50;15.77;;;9.00;;
21438;SDS011;10880;50.302;18.736;2024-03-23T04:14:17;14.23;;;8.20;;
21438;SDS011;10880;50.302;18.736;2024-03-23T04:16:43;18.67;;;9.60;;
21438;SDS011;10880;50.302;18.736;2024-03-23T04:19:10;15.00;;;8.13;;
21438;SDS011;10880;50.302;18.736;2024-03-23T04:21:37;11.73;;;7.23;;
21438;SDS011;10880;50.302;18.736;2024-03-23T04:24:04;11.67;;;5.90;;
21438;SDS011;10880;50.302;18.736;2024-03-23T04:26:41;19.93;;;10.60;;
21438;SDS011;10880;50.302;18.736;2024-03-23T04:29:14;16.97;;;8.90;;
21438;SDS011;10880;50.302;18.736;2024-03-23T04:31:40;11.27;;;7.10;;
21438;SDS011;10880;50.302;18.736;2024-03-23T04:34:06;11.53;;;7.33;;
21438;SDS011;10880;50.302;18.736;2024-03-23T04:36:33;9.73;;;6.50;;
21438;SDS011;10880;50.302;18.736;2024-03-23T04:39:02;9.10;;;5.47;;
21438;SDS011;10880;50.302;18.736;2024-03-23T04:41:28;11.87;;;6.57;;
21438;SDS011;10880;50.302;18.736;2024-03-23T04:43:55;10.73;;;6.10;;
21438;SDS011;10880;50.302;18.736;2024-03-23T04:46:22;11.63;;;6.10;;
21438;SDS011;10880;50.302;18.736;2024-03-23T04:48:49;9.33;;;5.60;;
21438;SDS011;10880;50.302;18.736;2024-03-23T04:51:25;10.23;;;5.87;;
21438;SDS011;10880;50.302;18.736;2024-03-23T04:53:52;10.60;;;6.83;;
21438;SDS011;10880;50.302;18.736;2024-03-23T04:56:18;9.97;;;6.33;;
21438;SDS011;10880;50.302;18.736;2024-03-23T04:58:45;7.93;;;5.60;;
21438;SDS011;10880;50.302;18.736;2024-03-23T05:01:12;8.73;;;5.50;;
21438;SDS011;10880;50.302;18.736;2024-03-23T05:03:38;8.37;;;5.57;;
21438;SDS011;10880;50.302;18.736;2024-03-23T05:06:05;7.47;;;5.43;;
21438;SDS011;10880;50.302;18.736;2024-03-23T05:08:31;17.93;;;9.10;;
21438;SDS011;10880;50.302;18.736;2024-03-23T05:10:59;13.47;;;8.93;;
21438;SDS011;10880;50.302;18.736;2024-03-23T05:13:25;19.10;;;11.00;;
21438;SDS011;10880;50.302;18.736;2024-03-23T05:15:55;16.77;;;9.90;;
21438;SDS011;10880;50.302;18.736;2024-03-23T05:18:22;15.60;;;9.80;;
21438;SDS011;10880;50.302;18.736;2024-03-23T05:20:48;12.90;;;7.77;;
21438;SDS011;10880;50.302;18.736;2024-03-23T05:23:21;10.57;;;6.53;;
21438;SDS011;10880;50.302;18.736;2024-03-23T05:25:47;21.20;;;12.33;;
21438;SDS011;10880;50.302;18.736;2024-03-23T05:28:15;18.60;;;11.10;;
21438;SDS011;10880;50.302;18.736;2024-03-23T05:30:42;14.03;;;8.63;;
21438;SDS011;10880;50.302;18.736;2024-03-23T05:33:08;12.37;;;7.73;;
21438;SDS011;10880;50.302;18.736;2024-03-23T05:35:34;16.20;;;8.90;;
21438;SDS011;10880;50.302;18.736;2024-03-23T05:38:01;30.27;;;17.53;;
21438;SDS011;10880;50.302;18.736;2024-03-23T05:40:28;26.53;;;14.60;;
21438;SDS011;10880;50.302;18.736;2024-03-23T05:42:54;25.53;;;13.60;;
21438;SDS011;10880;50.302;18.736;2024-03-23T05:45:21;18.83;;;10.80;;
21438;SDS011;10880;50.302;18.736;2024-03-23T05:47:48;36.57;;;17.73;;
21438;SDS011;10880;50.302;18.736;2024-03-23T05:50:15;26.73;;;14.00;;
21438;SDS011;10880;50.302;18.736;2024-03-23T05:52:41;22.73;;;12.70;;
21438;SDS011;10880;50.302;18.736;2024-03-23T05:55:09;19.77;;;11.10;;
21438;SDS011;10880;50.302;18.736;2024-03-23T05:57:38;18.60;;;9.80;;
21438;SDS011;10880;50.302;18.736;2024-03-23T06:00:05;18.77;;;10.87;;
21438;SDS011;10880;50.302;18.736;2024-03-23T06:02:42;14.87;;;8.33;;
21438;SDS011;10880;50.302;18.736;2024-03-23T06:05:11;15.03;;;9.53;;
21438;SDS011;10880;50.302;18.736;2024-03-23T06:07:38;14.27;;;8.37;;
21438;SDS011;10880;50.302;18.736;2024-03-23T06:10:05;12.20;;;8.03;;
21438;SDS011;10880;50.302;18.736;2024-03-23T06:12:31;15.87;;;9.63;;
21438;SDS011;10880;50.302;18.736;2024-03-23T06:14:58;17.50;;;10.27;;
21438;SDS011;10880;50.302;18.736;2024-03-23T06:17:24;21.90;;;12.33;;
21438;SDS011;10880;50.302;18.736;2024-03-23T06:19:51;17.33;;;10.60;;
21438;SDS011;10880;50.302;18.736;2024-03-23T06:22:17;12.90;;;8.30;;
21438;SDS011;10880;50.302;18.736;2024-03-23T06:24:44;9.87;;;6.33;;
21438;SDS011;10880;50.302;18.736;2024-03-23T06:27:11;11.27;;;7.33;;
21438;SDS011;10880;50.302;18.736;2024-03-23T06:29:38;11.60;;;7.50;;
21438;SDS011;10880;50.302;18.736;2024-03-23T06:32:05;14.40;;;8.90;;
21438;SDS011;10880;50.302;18.736;2024-03-23T06:34:32;14.33;;;9.00;;
21438;SDS011;10880;50.302;18.736;2024-03-23T06:37:01;16.10;;;9.53;;
21438;SDS011;10880;50.302;18.736;2024-03-23T06:39:35;11.60;;;7.40;;
21438;SDS011;10880;50.302;18.736;2024-03-23T06:42:06;8.80;;;5.87;;
21438;SDS011;10880;50.302;18.736;2024-03-23T06:44:36;8.57;;;5.60;;
21438;SDS011;10880;50.302;18.736;2024-03-23T06:47:10;9.33;;;6.27;;
21438;SDS011;10880;50.302;18.736;2024-03-23T06:49:38;11.77;;;8.20;;
21438;SDS011;10880;50.302;18.736;2024-03-23T06:52:07;9.87;;;6.53;;
21438;SDS011;10880;50.302;18.736;2024-03-23T06:54:34;11.40;;;7.30;;
21438;SDS011;10880;50.302;18.736;2024-03-23T06:57:01;9.27;;;6.30;;
21438;SDS011;10880;50.302;18.736;2024-03-23T06:59:29;12.80;;;8.47;;
21438;SDS011;10880;50.302;18.736;2024-03-23T07:01:56;11.87;;;7.40;;
21438;SDS011;10880;50.302;18.736;2024-03-23T07:04:23;12.00;;;7.10;;
21438;SDS011;10880;50.302;18.736;2024-03-23T07:06:53;10.10;;;6.93;;
21438;SDS011;10880;50.302;18.736;2024-03-23T07:09:28;14.27;;;9.33;;
21438;SDS011;10880;50.302;18.736;2024-03-23T07:11:56;11.50;;;7.07;;
21438;SDS011;10880;50.302;18.736;2024-03-23T07:14:25;15.07;;;9.37;;
21438;SDS011;10880;50.302;18.736;2024-03-23T07:16:53;9.40;;;6.47;;
21438;SDS011;10880;50.302;18.736;2024-03-23T07:19:20;9.33;;;5.90;;
21438;SDS011;10880;50.302;18.736;2024-03-23T07:21:47;5.87;;;4.60;;
21438;SDS011;10880;50.302;18.736;2024-03-23T07:24:14;6.97;;;5.43;;
21438;SDS011;10880;50.302;18.736;2024-03-23T07:26:43;11.43;;;6.73;;
21438;SDS011;10880;50.302;18.736;2024-03-23T07:29:09;12.17;;;6.80;;
21438;SDS011;10880;50.302;18.736;2024-03-23T07:31:36;13.20;;;7.73;;
21438;SDS011;10880;50.302;18.736;2024-03-23T07:34:02;10.37;;;7.20;;
21438;SDS011;10880;50.302;18.736;2024-03-23T07:36:29;9.73;;;6.40;;
21438;SDS011;10880;50.302;18.736;2024-03-23T07:38:55;10.17;;;7.17;;
21438;SDS011;10880;50.302;18.736;2024-03-23T07:41:22;9.67;;;6.77;;
21438;SDS011;10880;50.302;18.736;2024-03-23T07:43:49;5.93;;;4.40;;
21438;SDS011;10880;50.302;18.736;2024-03-23T07:46:16;5.90;;;4.50;;
21438;SDS011;10880;50.302;18.736;2024-03-23T07:48:42;6.83;;;5.07;;
21438;SDS011;10880;50.302;18.736;2024-03-23T07:51:10;5.30;;;4.50;;
21438;SDS011;10880;50.302;18.736;2024-03-23T07:53:42;9.00;;;6.03;;
21438;SDS011;10880;50.302;18.736;2024-03-23T07:56:10;8.93;;;6.23;;
21438;SDS011;10880;50.302;18.736;2024-03-23T07:58:37;6.27;;;5.07;;
21438;SDS011;10880;50.302;18.736;2024-03-23T08:01:13;7.03;;;5.07;;
21438;SDS011;10880;50.302;18.736;2024-03-23T08:03:42;7.70;;;5.60;;
21438;SDS011;10880;50.302;18.736;2024-03-23T08:06:10;9.77;;;6.20;;
21438;SDS011;10880;50.302;18.736;2024-03-23T08:08:39;7.33;;;5.37;;
21438;SDS011;10880;50.302;18.736;2024-03-23T08:11:06;9.23;;;5.90;;
21438;SDS011;10880;50.302;18.736;2024-03-23T08:13:34;6.87;;;4.73;;
21438;SDS011;10880;50.302;18.736;2024-03-23T08:16:02;5.80;;;4.57;;
21438;SDS011;10880;50.302;18.736;2024-03-23T08:18:29;6.10;;;4.43;;
21438;SDS011;10880;50.302;18.736;2024-03-23T08:20:59;7.07;;;5.07;;
21438;SDS011;10880;50.302;18.736;2024-03-23T08:23:28;7.47;;;4.87;;
21438;SDS011;10880;50.302;18.736;2024-03-23T08:25:58;6.97;;;5.30;;
21438;SDS011;10880;50.302;18.736;2024-03-23T08:28:26;6.63;;;5.30;;
21438;SDS011;10880;50.302;18.736;2024-03-23T08:30:55;5.20;;;3.90;;
21438;SDS011;10880;50.302;18.736;2024-03-23T08:33:22;7.67;;;5.53;;
21438;SDS011;10880;50.302;18.736;2024-03-23T08:35:57;6.80;;;5.00;;
21438;SDS011;10880;50.302;18.736;2024-03-23T08:38:25;6.83;;;5.13;;
21438;SDS011;10880;50.302;18.736;2024-03-23T08:41:00;6.77;;;4.40;;
21438;SDS011;10880;50.302;18.736;2024-03-23T08:43:32;7.00;;;4.57;;
21438;SDS011;10880;50.302;18.736;2024-03-23T08:46:06;5.87;;;4.40;;
21438;SDS011;10880;50.302;18.736;2024-03-23T08:48:40;5.63;;;4.37;;
21438;SDS011;10880;50.302;18.736;2024-03-23T08:51:09;6.13;;;4.50;;
21438;SDS011;10880;50.302;18.736;2024-03-23T08:53:36;6.63;;;4.73;;
21438;SDS011;10880;50.302;18.736;2024-03-23T08:56:04;6.10;;;4.73;;
21438;SDS011;10880;50.302;18.736;2024-03-23T08:58:32;6.97;;;4.57;;
21438;SDS011;10880;50.302;18.736;2024-03-23T09:01:03;7.73;;;4.73;;
21438;SDS011;10880;50.302;18.736;2024-03-23T09:03:34;6.73;;;4.23;;
21438;SDS011;10880;50.302;18.736;2024-03-23T09:06:08;6.23;;;4.40;;
21438;SDS011;10880;50.302;18.736;2024-03-23T09:08:36;6.50;;;4.67;;
21438;SDS011;10880;50.302;18.736;2024-03-23T09:11:06;7.23;;;4.67;;
21438;SDS011;10880;50.302;18.736;2024-03-23T09:13:34;6.20;;;4.67;;
21438;SDS011;10880;50.302;18.736;2024-03-23T09:16:01;6.13;;;4.40;;
21438;SDS011;10880;50.302;18.736;2024-03-23T09:18:31;4.87;;;3.50;;
21438;SDS011;10880;50.302;18.736;2024-03-23T09:20:58;5.97;;;4.50;;
21438;SDS011;10880;50.302;18.736;2024-03-23T09:23:28;7.73;;;5.17;;
21438;SDS011;10880;50.302;18.736;2024-03-23T09:25:54;8.27;;;4.87;;
21438;SDS011;10880;50.302;18.736;2024-03-23T09:28:21;7.93;;;5.27;;
21438;SDS011;10880;50.302;18.736;2024-03-23T09:30:48;8.13;;;5.30;;
21438;SDS011;10880;50.302;18.736;2024-03-23T09:33:14;10.63;;;5.93;;
21438;SDS011;10880;50.302;18.736;2024-03-23T09:35:41;9.03;;;5.63;;
21438;SDS011;10880;50.302;18.736;2024-03-23T09:38:10;8.80;;;5.90;;
21438;SDS011;10880;50.302;18.736;2024-03-23T09:40:40;10.23;;;5.60;;
21438;SDS011;10880;50.302;18.736;2024-03-23T09:43:11;12.67;;;6.47;;
21438;SDS011;10880;50.302;18.736;2024-03-23T09:45:38;10.60;;;6.13;;
21438;SDS011;10880;50.302;18.736;2024-03-23T09:48:09;9.90;;;5.90;;
21438;SDS011;10880;50.302;18.736;2024-03-23T09:50:39;8.60;;;5.53;;
21438;SDS011;10880;50.302;18.736;2024-03-23T09:53:06;13.20;;;5.77;;
21438;SDS011;10880;50.302;18.736;2024-03-23T09:55:33;14.97;;;5.87;;
21438;SDS011;10880;50.302;18.736;2024-03-23T09:58:02;9.37;;;5.73;;
21438;SDS011;10880;50.302;18.736;2024-03-23T10:00:31;9.53;;;5.10;;
21438;SDS011;10880;50.302;18.736;2024-03-23T10:02:58;7.53;;;5.10;;
21438;SDS011;10880;50.302;18.736;2024-03-23T10:05:28;8.30;;;5.17;;
21438;SDS011;10880;50.302;18.736;2024-03-23T10:07:57;10.00;;;5.70;;
21438;SDS011;10880;50.302;18.736;2024-03-23T10:10:27;7.80;;;5.30;;
21438;SDS011;10880;50.302;18.736;2024-03-23T10:12:54;11.57;;;4.50;;
21438;SDS011;10880;50.302;18.736;2024-03-23T10:15:24;5.33;;;3.90;;
21438;SDS011;10880;50.302;18.736;2024-03-23T10:17:51;9.90;;;6.23;;
21438;SDS011;10880;50.302;18.736;2024-03-23T10:20:22;12.70;;;7.97;;
21438;SDS011;10880;50.302;18.736;2024-03-23T10:22:51;8.83;;;5.83;;
21438;SDS011;10880;50.302;18.736;2024-03-23T10:25:22;10.23;;;6.53;;
21438;SDS011;10880;50.302;18.736;2024-03-23T10:27:58;8.93;;;5.70;;
21438;SDS011;10880;50.302;18.736;2024-03-23T10:30:25;6.00;;;4.20;;
21438;SDS011;10880;50.302;18.736;2024-03-23T10:33:06;4.40;;;3.70;;
21438;SDS011;10880;50.302;18.736;2024-03-23T10:35:37;5.67;;;4.17;;
21438;SDS011;10880;50.302;18.736;2024-03-23T10:38:07;6.83;;;4.10;;
21438;SDS011;10880;50.302;18.736;2024-03-23T10:40:34;6.50;;;4.47;;
21438;SDS011;10880;50.302;18.736;2024-03-23T10:43:02;6.43;;;3.80;;
21438;SDS011;10880;50.302;18.736;2024-03-23T10:45:32;6.60;;;4.40;;
21438;SDS011;10880;50.302;18.736;2024-03-23T10:47:59;6.33;;;3.80;;
21438;SDS011;10880;50.302;18.736;2024-03-23T10:50:25;5.63;;;3.80;;
21438;SDS011;10880;50.302;18.736;2024-03-23T10:52:55;6.80;;;4.37;;
21438;SDS011;10880;50.302;18.736;2024-03-23T10:55:25;8.20;;;3.97;;
21438;SDS011;10880;50.302;18.736;2024-03-23T10:57:55;6.97;;;3.90;;
21438;SDS011;10880;50.302;18.736;2024-03-23T11:00:25;7.43;;;4.60;;
21438;SDS011;10880;50.302;18.736;2024-03-23T11:02:52;5.40;;;3.90;;
21438;SDS011;10880;50.302;18.736;2024-03-23T11:05:31;6.03;;;3.93;;
21438;SDS011;10880;50.302;18.736;2024-03-23T11:07:57;4.60;;;3.60;;
21438;SDS011;10880;50.302;18.736;2024-03-23T11:10:25;7.73;;;3.27;;
21438;SDS011;10880;50.302;18.736;2024-03-23T11:13:38;4.40;;;3.40;;
21438;SDS011;10880;50.302;18.736;2024-03-23T11:15:49;3.50;;;3.20;;
21438;SDS011;10880;50.302;18.736;2024-03-23T11:18:20;3.57;;;3.03;;
21438;SDS011;10880;50.302;18.736;2024-03-23T11:20:47;4.87;;;3.17;;
21438;SDS011;10880;50.302;18.736;2024-03-23T11:23:35;3.27;;;2.73;;
21438;SDS011;10880;50.302;18.736;2024-03-23T11:26:01;6.07;;;3.60;;
21438;SDS011;10880;50.302;18.736;2024-03-23T11:28:28;3.87;;;2.80;;
21438;SDS011;10880;50.302;18.736;2024-03-23T11:30:55;4.17;;;3.20;;
21438;SDS011;10880;50.302;18.736;2024-03-23T11:33:22;11.83;;;5.73;;
21438;SDS011;10880;50.302;18.736;2024-03-23T11:35:49;10.20;;;5.07;;
21438;SDS011;10880;50.302;18.736;2024-03-23T11:38:17;7.07;;;3.73;;
21438;SDS011;10880;50.302;18.736;2024-03-23T11:40:48;6.20;;;3.20;;
21438;SDS011;10880;50.302;18.736;2024-03-23T11:43:17;3.70;;;2.50;;
21438;SDS011;10880;50.302;18.736;2024-03-23T11:45:46;5.60;;;2.30;;
21438;SDS011;10880;50.302;18.736;2024-03-23T11:48:19;5.23;;;2.60;;
21438;SDS011;10880;50.302;18.736;2024-03-23T11:50:47;4.33;;;2.50;;
21438;SDS011;10880;50.302;18.736;2024-03-23T11:55:50;3.70;;;2.60;;
21438;SDS011;10880;50.302;18.736;2024-03-23T11:58:19;2.70;;;2.40;;
21438;SDS011;10880;50.302;18.736;2024-03-23T12:00:50;2.57;;;2.27;;
21438;SDS011;10880;50.302;18.736;2024-03-23T12:03:18;3.50;;;2.47;;
21438;SDS011;10880;50.302;18.736;2024-03-23T12:05:52;3.47;;;2.10;;
21438;SDS011;10880;50.302;18.736;2024-03-23T12:11:05;3.00;;;2.30;;
21438;SDS011;10880;50.302;18.736;2024-03-23T12:13:32;3.10;;;2.40;;
21438;SDS011;10880;50.302;18.736;2024-03-23T12:18:48;2.60;;;2.00;;
21438;SDS011;10880;50.302;18.736;2024-03-23T12:21:16;2.53;;;2.20;;
21438;SDS011;10880;50.302;18.736;2024-03-23T12:23:43;2.33;;;2.10;;
21438;SDS011;10880;50.302;18.736;2024-03-23T12:26:12;3.10;;;2.10;;
21438;SDS011;10880;50.302;18.736;2024-03-23T12:28:39;2.23;;;2.00;;
21438;SDS011;10880;50.302;18.736;2024-03-23T12:31:05;2.50;;;1.90;;
21438;SDS011;10880;50.302;18.736;2024-03-23T12:33:32;2.40;;;2.10;;
21438;SDS011;10880;50.302;18.736;2024-03-23T12:36:05;2.30;;;1.90;;
21438;SDS011;10880;50.302;18.736;2024-03-23T12:38:33;2.93;;;2.23;;
21438;SDS011;10880;50.302;18.736;2024-03-23T12:41:00;2.17;;;1.97;;
21438;SDS011;10880;50.302;18.736;2024-03-23T12:43:26;2.53;;;1.90;;
21438;SDS011;10880;50.302;18.736;2024-03-23T12:45:53;2.00;;;1.90;;
21438;SDS011;10880;50.302;18.736;2024-03-23T12:48:20;2.57;;;2.10;;
21438;SDS011;10880;50.302;18.736;2024-03-23T12:50:54;3.53;;;2.50;;
21438;SDS011;10880;50.302;18.736;2024-03-23T12:53:20;3.97;;;2.80;;
21438;SDS011;10880;50.302;18.736;2024-03-23T12:55:47;3.07;;;2.40;;
21438;SDS011;10880;50.302;18.736;2024-03-23T12:58:15;3.03;;;2.27;;
21438;SDS011;10880;50.302;18.736;2024-03-23T13:00:41;3.10;;;2.40;;
21438;SDS011;10880;50.302;18.736;2024-03-23T13:03:13;4.83;;;2.77;;
21438;SDS011;10880;50.302;18.736;2024-03-23T13:05:46;2.23;;;2.03;;
21438;SDS011;10880;50.302;18.736;2024-03-23T13:08:20;2.47;;;2.27;;
21438;SDS011;10880;50.302;18.736;2024-03-23T13:10:46;2.60;;;2.33;;
21438;SDS011;10880;50.302;18.736;2024-03-23T13:13:13;4.73;;;2.33;;
21438;SDS011;10880;50.302;18.736;2024-03-23T13:15:39;3.50;;;2.67;;
21438;SDS011;10880;50.302;18.736;2024-03-23T13:18:06;3.43;;;2.30;;
21438;SDS011;10880;50.302;18.736;2024-03-23T13:20:35;3.20;;;2.20;;
21438;SDS011;10880;50.302;18.736;2024-03-23T13:23:01;2.10;;;1.90;;
21438;SDS011;10880;50.302;18.736;2024-03-23T13:25:28;1.90;;;1.70;;
21438;SDS011;10880;50.302;18.736;2024-03-23T13:27:54;3.87;;;2.30;;
21438;SDS011;10880;50.302;18.736;2024-03-23T13:30:21;37.03;;;3.63;;
21438;SDS011;10880;50.302;18.736;2024-03-23T13:32:48;5.33;;;2.03;;
21438;SDS011;10880;50.302;18.736;2024-03-23T13:35:18;3.53;;;1.63;;
21438;SDS011;10880;50.302;18.736;2024-03-23T13:37:45;3.27;;;1.50;;
21438;SDS011;10880;50.302;18.736;2024-03-23T13:40:12;1.73;;;1.20;;
21438;SDS011;10880;50.302;18.736;2024-03-23T13:42:39;1.30;;;1.20;;
21438;SDS011;10880;50.302;18.736;2024-03-23T13:45:09;3.27;;;1.43;;
21438;SDS011;10880;50.302;18.736;2024-03-23T13:47:38;2.20;;;1.70;;
21438;SDS011;10880;50.302;18.736;2024-03-23T13:50:05;1.77;;;1.67;;
21438;SDS011;10880;50.302;18.736;2024-03-23T13:52:35;4.03;;;1.70;;
21438;SDS011;10880;50.302;18.736;2024-03-23T13:55:03;1.70;;;1.60;;
21438;SDS011;10880;50.302;18.736;2024-03-23T13:57:29;3.53;;;2.20;;
21438;SDS011;10880;50.302;18.736;2024-03-23T13:59:56;2.53;;;1.80;;
21438;SDS011;10880;50.302;18.736;2024-03-23T14:02:23;1.67;;;1.57;;
21438;SDS011;10880;50.302;18.736;2024-03-23T14:04:50;2.50;;;1.90;;
21438;SDS011;10880;50.302;18.736;2024-03-23T14:07:16;1.80;;;1.70;;
21438;SDS011;10880;50.302;18.736;2024-03-23T14:09:46;1.63;;;1.53;;
21438;SDS011;10880;50.302;18.736;2024-03-23T14:12:13;2.10;;;1.60;;
21438;SDS011;10880;50.302;18.736;2024-03-23T14:14:39;1.40;;;1.30;;
21438;SDS011;10880;50.302;18.736;2024-03-23T14:17:06;1.50;;;1.40;;
21438;SDS011;10880;50.302;18.736;2024-03-23T14:19:33;4.13;;;1.90;;
21438;SDS011;10880;50.302;18.736;2024-03-23T14:21:59;2.67;;;1.73;;
21438;SDS011;10880;50.302;18.736;2024-03-23T14:24:26;2.10;;;1.90;;
21438;SDS011;10880;50.302;18.736;2024-03-23T14:26:55;4.13;;;2.10;;
21438;SDS011;10880;50.302;18.736;2024-03-23T14:29:22;2.37;;;2.17;;
21438;SDS011;10880;50.302;18.736;2024-03-23T14:31:49;2.20;;;2.00;;
21438;SDS011;10880;50.302;18.736;2024-03-23T14:34:15;2.57;;;2.37;;
21438;SDS011;10880;50.302;18.736;2024-03-23T14:36:45;2.83;;;2.50;;
21438;SDS011;10880;50.302;18.736;2024-03-23T14:39:12;2.70;;;2.50;;
21438;SDS011;10880;50.302;18.736;2024-03-23T14:41:41;2.60;;;2.40;;
21438;SDS011;10880;50.302;18.736;2024-03-23T14:44:07;2.10;;;2.00;;
21438;SDS011;10880;50.302;18.736;2024-03-23T14:46:34;4.53;;;3.33;;
21438;SDS011;10880;50.302;18.736;2024-03-23T14:49:02;3.70;;;2.80;;
21438;SDS011;10880;50.302;18.736;2024-03-23T14:51:31;2.80;;;2.40;;
21438;SDS011;10880;50.302;18.736;2024-03-23T14:53:59;2.87;;;2.57;;
21438;SDS011;10880;50.302;18.736;2024-03-23T14:56:26;2.37;;;2.10;;
21438;SDS011;10880;50.302;18.736;2024-03-23T14:58:52;4.57;;;2.80;;
21438;SDS011;10880;50.302;18.736;2024-03-23T15:01:21;3.67;;;2.60;;
21438;SDS011;10880;50.302;18.736;2024-03-23T15:03:47;2.10;;;1.90;;
21438;SDS011;10880;50.302;18.736;2024-03-23T15:06:14;1.93;;;1.70;;
21438;SDS011;10880;50.302;18.736;2024-03-23T15:08:40;2.53;;;2.13;;
21438;SDS011;10880;50.302;18.736;2024-03-23T15:11:07;2.40;;;2.20;;
21438;SDS011;10880;50.302;18.736;2024-03-23T15:13:35;2.50;;;2.30;;
21438;SDS011;10880;50.302;18.736;2024-03-23T15:16:05;2.53;;;2.30;;
21438;SDS011;10880;50.302;18.736;2024-03-23T15:18:34;3.30;;;2.57;;
21438;SDS011;10880;50.302;18.736;2024-03-23T15:21:02;2.80;;;2.50;;
21438;SDS011;10880;50.302;18.736;2024-03-23T15:23:34;3.27;;;2.50;;
21438;SDS011;10880;50.302;18.736;2024-03-23T15:26:07;3.27;;;2.60;;
21438;SDS011;10880;50.302;18.736;2024-03-23T15:28:34;3.13;;;2.30;;
21438;SDS011;10880;50.302;18.736;2024-03-23T15:31:31;3.17;;;2.27;;
21438;SDS011;10880;50.302;18.736;2024-03-23T15:34:07;3.50;;;2.70;;